Huntingdon, Canada
Current Conditions -  °F | °C
As of 11:00 PM on Sunday 23 Nov 2014 (Local Time) from CYUL Reporting Station
Overcast Overcast  
Wind Chill: 39°   Ceiling: 6000
Heat Index: 45°   Visibility: 15mi
Dew Point: 39°   Wind: 12mph
Humidity: 81%   Direction: 130°SE
Pressure: 29.91"   Gusts: NA
Location:  45.08°N, 74.18°W
Report Text: CYUL 240400Z 13010KT 15SM OVC060 07/04 A2991 RMK SC8 SLP128
Loading
Personal Weather Stations






























Interactive Weather Map New forecast layout! Learn more

10-Day Weather Forecast

Advertisements
Track Severe Weather on mobile